ADDS METAR Data INFO
IDs: Format: Raw Decoded Include TAF

Data at: 0526 UTC 16 Dec 2017

METAR for:KHLX (Hillsville/Twin Cnty, VA, US)
Text:KHLX 160515Z AUTO 30012G24KT 10SM OVC028 M03/M08 A3002 RMK AO2 T10271085
Temperature: -2.7°C ( 27°F)
Dewpoint: -8.5°C ( 17°F) [RH = 64%]
Pressure (altimeter):30.02 inches Hg (1016.7 mb)
Winds:from the WNW (300 degrees) at 14 MPH (12 knots; 6.2 m/s) gusting to 28 MPH (24 knots; 12.3 m/s)
Visibility:10 or more sm (16+ km)
Ceiling:2800 feet AGL
Clouds: overcast cloud deck at 2800 feet AGL
QC Flag:automated observation with no human augmentation